Time;durP1;ratioP1;P1;durP2;ratioP2;P2;SDS_P1;SDS_P2;PMS_P1;PMS_P2;Temp;Humidity;BMP_temperature;BMP_pressure;BME280_temperature;BME280_humidity;BME280_pressure;Samples;Min_cycle;Max_cycle;Signal;HPM_P1;HPM_P2
2022/01/24 00:01:15;;;;;;;;;45.00;37.25;;;;;;;;5069337;28;11518;-78
2022/01/24 00:03:43;;;;;;;;;24.25;24.00;;;;;;;;5074852;28;11585;-79
2022/01/24 00:06:13;;;;;;;;;30.00;24.25;;;;;;;;5078911;28;11574;-78
2022/01/24 00:08:41;;;;;;;;;29.75;29.75;;;;;;;;5067469;28;11688;-78
2022/01/24 00:11:14;;;;;;;;;34.00;27.25;;;;;;;;5081524;28;11713;-79
2022/01/24 00:16:35;;;;;;;;;35.25;32.00;;;;;;;;5065460;28;11562;-77
2022/01/24 00:27:18;;;;;;;;;33.25;31.50;;;;;;;;5073171;28;11548;-77
2022/01/24 00:29:46;;;;;;;;;34.50;30.75;;;;;;;;5083283;28;11583;-77
2022/01/24 00:32:13;;;;;;;;;40.75;35.75;;;;;;;;5102671;27;12236;-79
2022/01/24 00:34:40;;;;;;;;;43.25;34.75;;;;;;;;5106743;28;11467;-77
2022/01/24 00:37:08;;;;;;;;;30.75;25.25;;;;;;;;5077713;28;12363;-78
2022/01/24 00:39:35;;;;;;;;;35.75;29.00;;;;;;;;5098871;28;11481;-78
2022/01/24 00:42:17;;;;;;;;;27.25;25.75;;;;;;;;5068399;28;11604;-78
2022/01/24 00:44:51;;;;;;;;;34.50;31.50;;;;;;;;5096744;28;11517;-78
2022/01/24 00:47:25;;;;;;;;;43.00;37.75;;;;;;;;5097922;28;11483;-78
2022/01/24 00:55:22;;;;;;;;;34.00;31.00;;;;;;;;5089787;28;11481;-78
2022/01/24 00:57:50;;;;;;;;;32.75;29.00;;;;;;;;5092794;28;11477;-79
2022/01/24 01:00:19;;;;;;;;;34.75;30.75;;;;;;;;5072277;28;11493;-78
2022/01/24 01:02:46;;;;;;;;;33.50;31.50;;;;;;;;5069998;28;11613;-79
2022/01/24 01:05:30;;;;;;;;;31.50;29.00;;;;;;;;5080200;28;11551;-78
2022/01/24 01:08:13;;;;;;;;;34.00;31.00;;;;;;;;5075127;28;11547;-79
2022/01/24 01:19:02;;;;;;;;;34.75;30.25;;;;;;;;5070090;28;11694;-79
2022/01/24 01:21:30;;;;;;;;;19.75;17.50;;;;;;;;5076926;28;11706;-80
2022/01/24 01:23:59;;;;;;;;;27.00;24.75;;;;;;;;5079679;28;11646;-79
2022/01/24 01:26:32;;;;;;;;;30.75;28.00;;;;;;;;5080381;28;11584;-79
2022/01/24 01:29:03;;;;;;;;;29.00;27.75;;;;;;;;5081514;28;11571;-79
2022/01/24 01:31:41;;;;;;;;;31.50;29.50;;;;;;;;5076563;28;11524;-79
2022/01/24 01:34:22;;;;;;;;;33.50;28.75;;;;;;;;5081701;28;11676;-79
2022/01/24 01:37:28;;;;;;;;;24.50;24.50;;;;;;;;5082799;28;12331;-79
2022/01/24 01:54:22;;;;;;;;;30.75;29.75;;;;;;;;5078125;28;11565;-78
2022/01/24 01:56:50;;;;;;;;;23.25;22.75;;;;;;;;5075736;28;12420;-78
2022/01/24 01:59:17;;;;;;;;;31.00;27.50;;;;;;;;5070886;28;12373;-78
2022/01/24 02:01:44;;;;;;;;;27.75;23.00;;;;;;;;5054900;28;11559;-77
2022/01/24 02:04:13;;;;;;;;;30.00;26.25;;;;;;;;5036739;28;11597;-78
2022/01/24 02:06:40;;;;;;;;;23.75;22.75;;;;;;;;5039363;28;12219;-77
2022/01/24 02:09:09;;;;;;;;;27.25;26.75;;;;;;;;5039378;28;11579;-77
2022/01/24 02:11:37;;;;;;;;;27.75;25.00;;;;;;;;5038111;28;11657;-77
2022/01/24 02:14:09;;;;;;;;;21.25;19.50;;;;;;;;5041971;28;12413;-77
2022/01/24 02:16:44;;;;;;;;;24.25;21.50;;;;;;;;5032190;28;11621;-76
2022/01/24 02:19:24;;;;;;;;;34.00;28.50;;;;;;;;5035983;28;11575;-77
2022/01/24 02:22:17;;;;;;;;;30.00;23.25;;;;;;;;5045851;28;11646;-77
2022/01/24 02:24:54;;;;;;;;;32.75;30.50;;;;;;;;5038457;28;11593;-77
2022/01/24 02:27:24;;;;;;;;;24.00;20.75;;;;;;;;5040537;28;11688;-76
2022/01/24 02:30:06;;;;;;;;;32.00;26.75;;;;;;;;5039006;28;11619;-77
2022/01/24 02:32:36;;;;;;;;;23.25;20.50;;;;;;;;5046009;28;11673;-78
2022/01/24 02:35:04;;;;;;;;;30.75;27.00;;;;;;;;5040029;28;11611;-78
2022/01/24 02:37:33;;;;;;;;;27.25;25.00;;;;;;;;5034029;28;12373;-78
2022/01/24 02:40:05;;;;;;;;;27.75;26.50;;;;;;;;5043065;28;13702;-78
2022/01/24 02:48:24;;;;;;;;;28.25;25.25;;;;;;;;5053004;28;11482;-78
2022/01/24 02:53:35;;;;;;;;;35.50;30.25;;;;;;;;5026028;28;11495;-79
2022/01/24 02:56:04;;;;;;;;;23.50;20.00;;;;;;;;5057056;28;11489;-77
2022/01/24 02:58:31;;;;;;;;;28.25;24.50;;;;;;;;5052307;28;11581;-77
2022/01/24 03:00:59;;;;;;;;;25.50;21.25;;;;;;;;5045489;28;11484;-78
2022/01/24 03:03:26;;;;;;;;;20.25;19.25;;;;;;;;5035646;28;12280;-78
2022/01/24 03:05:54;;;;;;;;;24.33;21.67;;;;;;;;5039903;28;11494;-78
2022/01/24 03:08:22;;;;;;;;;28.67;22.00;;;;;;;;5035417;28;11513;-77
2022/01/24 03:10:53;;;;;;;;;24.67;22.33;;;;;;;;5049621;28;11568;-78
2022/01/24 03:13:32;;;;;;;;;24.50;19.75;;;;;;;;5046170;28;11494;-78
2022/01/24 03:16:01;;;;;;;;;25.75;23.25;;;;;;;;5049222;28;11608;-77
2022/01/24 03:18:29;;;;;;;;;29.00;23.50;;;;;;;;5048047;28;11481;-78
2022/01/24 03:20:56;;;;;;;;;22.00;22.00;;;;;;;;5045094;28;12251;-77
2022/01/24 03:23:25;;;;;;;;;21.33;19.00;;;;;;;;5028939;28;11512;-78
2022/01/24 03:25:54;;;;;;;;;19.67;18.67;;;;;;;;5045999;28;11512;-78
2022/01/24 03:28:22;;;;;;;;;24.00;22.00;;;;;;;;5055844;28;11514;-79
2022/01/24 03:30:49;;;;;;;;;34.33;30.33;;;;;;;;5035685;28;11451;-79
2022/01/24 03:33:17;;;;;;;;;24.33;23.67;;;;;;;;5027768;28;11553;-79
2022/01/24 03:35:45;;;;;;;;;25.33;23.00;;;;;;;;5049397;28;11701;-79
2022/01/24 03:38:13;;;;;;;;;27.00;22.67;;;;;;;;5048654;28;11503;-79
2022/01/24 03:40:40;;;;;;;;;28.67;27.00;;;;;;;;5046577;28;11527;-79
2022/01/24 03:43:09;;;;;;;;;27.00;27.00;;;;;;;;5045490;28;11633;-79
2022/01/24 03:46:10;;;;;;;;;31.67;27.00;;;;;;;;5051143;28;11516;-79
2022/01/24 03:48:41;;;;;;;;;35.00;27.00;;;;;;;;5045904;28;11514;-79
2022/01/24 03:51:08;;;;;;;;;28.33;26.00;;;;;;;;5045061;28;11503;-79
2022/01/24 03:53:36;;;;;;;;;18.67;18.67;;;;;;;;5045465;28;11534;-79
2022/01/24 03:56:04;;;;;;;;;25.33;25.33;;;;;;;;5060683;28;11513;-79
2022/01/24 03:58:33;;;;;;;;;30.00;29.00;;;;;;;;5033670;28;11485;-79
2022/01/24 04:01:01;;;;;;;;;36.67;30.00;;;;;;;;5044903;28;12456;-79
2022/01/24 04:03:28;;;;;;;;;27.00;24.00;;;;;;;;5045923;28;11527;-79
2022/01/24 04:05:56;;;;;;;;;26.00;22.00;;;;;;;;5045359;28;11631;-77
2022/01/24 04:08:23;;;;;;;;;21.67;20.00;;;;;;;;5046692;28;11510;-77
2022/01/24 04:10:54;;;;;;;;;26.33;22.67;;;;;;;;5023390;28;11487;-79
2022/01/24 04:13:27;;;;;;;;;28.33;26.33;;;;;;;;5043194;28;11726;-78
2022/01/24 04:16:13;;;;;;;;;21.67;21.67;;;;;;;;5044829;28;11521;-79
2022/01/24 04:18:48;;;;;;;;;26.00;26.00;;;;;;;;5038472;28;11621;-79
2022/01/24 04:21:22;;;;;;;;;24.33;22.00;;;;;;;;5024440;28;8872;-78
2022/01/24 04:23:54;;;;;;;;;23.33;22.33;;;;;;;;5022943;28;11493;-78
2022/01/24 04:26:21;;;;;;;;;17.67;17.67;;;;;;;;5043539;28;11514;-78
2022/01/24 04:28:48;;;;;;;;;29.00;27.67;;;;;;;;5023140;28;11521;-78
2022/01/24 04:31:17;;;;;;;;;35.67;28.33;;;;;;;;5052117;28;8870;-78
2022/01/24 04:33:45;;;;;;;;;30.67;28.67;;;;;;;;5046984;28;8880;-77
2022/01/24 04:36:12;;;;;;;;;28.33;24.33;;;;;;;;5044215;28;8864;-77
2022/01/24 04:38:40;;;;;;;;;28.00;25.33;;;;;;;;5045046;28;8914;-77
2022/01/24 04:41:16;;;;;;;;;24.33;22.33;;;;;;;;5048280;28;8954;-77
2022/01/24 04:43:57;;;;;;;;;22.67;22.67;;;;;;;;5047150;28;9462;-77
2022/01/24 04:52:10;;;;;;;;;28.33;23.33;;;;;;;;5042409;28;8840;-77
2022/01/24 04:54:40;;;;;;;;;21.67;21.67;;;;;;;;5045924;28;8897;-78
2022/01/24 04:57:09;;;;;;;;;24.33;24.33;;;;;;;;5053019;28;8898;-78
2022/01/24 04:59:37;;;;;;;;;23.33;21.00;;;;;;;;5029751;28;8937;-78
2022/01/24 05:02:07;;;;;;;;;31.67;27.00;;;;;;;;5045090;28;8816;-77
2022/01/24 05:04:34;;;;;;;;;29.67;25.67;;;;;;;;5031054;28;8944;-77
2022/01/24 05:07:02;;;;;;;;;24.00;21.33;;;;;;;;5044829;28;8832;-77
2022/01/24 05:09:35;;;;;;;;;29.00;23.33;;;;;;;;5044232;28;8939;-78
2022/01/24 05:12:08;;;;;;;;;23.67;23.67;;;;;;;;5026623;28;8887;-77
2022/01/24 05:25:36;;;;;;;;;33.33;25.00;;;;;;;;5042822;28;8792;-78
2022/01/24 05:28:04;;;;;;;;;17.00;14.67;;;;;;;;5042863;28;8894;-79
2022/01/24 05:30:31;;;;;;;;;24.67;23.00;;;;;;;;5041418;28;8783;-80
2022/01/24 05:33:00;;;;;;;;;30.67;24.00;;;;;;;;5041832;28;8840;-79
2022/01/24 05:35:28;;;;;;;;;32.67;31.00;;;;;;;;5031780;28;9283;-80
2022/01/24 05:37:55;;;;;;;;;25.00;21.00;;;;;;;;5041444;28;8882;-79
2022/01/24 05:40:22;;;;;;;;;29.33;26.33;;;;;;;;5042594;28;8888;-79
2022/01/24 05:42:50;;;;;;;;;31.33;27.00;;;;;;;;5043626;28;8871;-80
2022/01/24 05:45:17;;;;;;;;;25.33;21.00;;;;;;;;5013907;28;8863;-79
2022/01/24 05:47:44;;;;;;;;;33.00;25.67;;;;;;;;5037592;28;8873;-79
2022/01/24 05:50:13;;;;;;;;;27.00;27.00;;;;;;;;5040774;28;8910;-79
2022/01/24 05:52:41;;;;;;;;;19.00;19.00;;;;;;;;5037239;28;8879;-80
2022/01/24 05:55:09;;;;;;;;;29.00;25.33;;;;;;;;5034231;28;8848;-79
2022/01/24 05:57:36;;;;;;;;;34.00;29.67;;;;;;;;5042317;28;9411;-79
2022/01/24 06:00:05;;;;;;;;;33.67;26.00;;;;;;;;5025848;28;8974;-78
2022/01/24 06:02:33;;;;;;;;;34.33;26.67;;;;;;;;5019016;28;8981;-79
2022/01/24 06:05:00;;;;;;;;;35.67;28.67;;;;;;;;5005378;28;8858;-79
2022/01/24 06:07:29;;;;;;;;;36.67;34.00;;;;;;;;5019873;28;8874;-84
2022/01/24 06:09:57;;;;;;;;;41.33;31.00;;;;;;;;5003675;28;8862;-81
2022/01/24 06:12:25;;;;;;;;;39.00;27.33;;;;;;;;4985541;28;8888;-86
2022/01/24 06:14:52;;;;;;;;;31.00;25.00;;;;;;;;5021602;28;8881;-84
2022/01/24 06:17:20;;;;;;;;;34.33;29.00;;;;;;;;5018004;28;9022;-82
2022/01/24 06:19:47;;;;;;;;;41.33;40.67;;;;;;;;5020103;28;8991;-91
2022/01/24 06:22:14;;;;;;;;;38.33;34.33;;;;;;;;5019473;28;8989;-84
2022/01/24 06:24:43;;;;;;;;;35.67;32.33;;;;;;;;5018210;28;8870;-91
2022/01/24 06:27:10;;;;;;;;;33.33;32.00;;;;;;;;5018119;28;8872;-90
2022/01/24 06:29:38;;;;;;;;;39.33;39.33;;;;;;;;5017144;28;8822;-86
2022/01/24 06:32:06;;;;;;;;;34.67;32.00;;;;;;;;5035901;28;8850;-85
2022/01/24 06:34:33;;;;;;;;;24.33;22.67;;;;;;;;5045858;28;8859;-81
2022/01/24 06:37:01;;;;;;;;;28.67;27.33;;;;;;;;5031539;28;8871;-83
2022/01/24 06:39:28;;;;;;;;;34.00;29.33;;;;;;;;5045500;28;9002;-85
2022/01/24 06:42:09;;;;;;;;;27.67;22.67;;;;;;;;5045426;28;8852;-84
2022/01/24 06:44:37;;;;;;;;;38.33;26.67;;;;;;;;5040216;28;8872;-83
2022/01/24 06:47:04;;;;;;;;;42.00;35.33;;;;;;;;5045925;28;8860;-83
2022/01/24 06:49:32;;;;;;;;;29.67;26.33;;;;;;;;5043125;28;8891;-84
2022/01/24 06:51:59;;;;;;;;;27.67;25.33;;;;;;;;5043372;28;8949;-83
2022/01/24 06:54:27;;;;;;;;;37.00;32.67;;;;;;;;5028830;28;8917;-84
2022/01/24 06:56:54;;;;;;;;;30.00;25.00;;;;;;;;5028498;28;8859;-83
2022/01/24 06:59:22;;;;;;;;;28.33;22.33;;;;;;;;5045519;28;8856;-83
2022/01/24 07:01:50;;;;;;;;;31.67;27.33;;;;;;;;5044665;28;8846;-78
2022/01/24 07:04:17;;;;;;;;;30.00;30.00;;;;;;;;5045342;28;8839;-78
2022/01/24 07:06:45;;;;;;;;;28.33;28.33;;;;;;;;5045440;28;10063;-81
2022/01/24 07:09:13;;;;;;;;;42.00;38.67;;;;;;;;5045428;28;8866;-79
2022/01/24 07:11:41;;;;;;;;;43.67;43.00;;;;;;;;5041241;28;8846;-82
2022/01/24 07:14:12;;;;;;;;;41.00;37.33;;;;;;;;5027059;28;8856;-78
2022/01/24 07:17:04;;;;;;;;;47.67;43.33;;;;;;;;5040937;28;8866;-87
2022/01/24 07:19:32;;;;;;;;;46.33;43.67;;;;;;;;5040231;28;8860;-77
2022/01/24 07:22:01;;;;;;;;;49.33;40.33;;;;;;;;5044508;28;8828;-77
2022/01/24 07:24:29;;;;;;;;;64.67;46.00;;;;;;;;5038970;28;8986;-77
2022/01/24 07:26:57;;;;;;;;;61.00;50.00;;;;;;;;5044229;28;8937;-78
2022/01/24 07:29:25;;;;;;;;;58.00;45.33;;;;;;;;5044053;28;8880;-82
2022/01/24 07:31:53;;;;;;;;;68.33;57.00;;;;;;;;5044122;28;8822;-78
2022/01/24 07:34:21;;;;;;;;;70.67;56.00;;;;;;;;5041989;28;8894;-82
2022/01/24 07:36:48;;;;;;;;;60.00;52.33;;;;;;;;5019475;28;8858;-78
2022/01/24 07:39:16;;;;;;;;;68.00;56.00;;;;;;;;5040650;28;8863;-78
2022/01/24 07:41:45;;;;;;;;;61.33;49.67;;;;;;;;5049212;28;8870;-79
2022/01/24 07:44:13;;;;;;;;;57.33;47.67;;;;;;;;5044973;28;8856;-79
2022/01/24 07:46:40;;;;;;;;;64.67;54.00;;;;;;;;5044691;28;8908;-78
2022/01/24 07:49:12;;;;;;;;;65.00;48.67;;;;;;;;5045294;28;8859;-75
2022/01/24 07:51:40;;;;;;;;;76.33;59.00;;;;;;;;5042851;28;8952;-75
2022/01/24 07:54:08;;;;;;;;;66.33;56.00;;;;;;;;5044001;28;8864;-80
2022/01/24 07:56:36;;;;;;;;;76.00;62.00;;;;;;;;5043374;28;8855;-76
2022/01/24 07:59:03;;;;;;;;;66.67;57.33;;;;;;;;5043442;28;8867;-78
2022/01/24 08:01:30;;;;;;;;;64.00;44.33;;;;;;;;5044672;28;8865;-81
2022/01/24 08:03:58;;;;;;;;;68.67;57.00;;;;;;;;5042118;28;8840;-78
2022/01/24 08:06:27;;;;;;;;;71.67;58.33;;;;;;;;5042409;28;8864;-77
2022/01/24 08:08:54;;;;;;;;;88.00;70.00;;;;;;;;5041199;28;9661;-80
2022/01/24 08:11:22;;;;;;;;;79.25;65.50;;;;;;;;5039637;28;8852;-76
2022/01/24 08:13:49;;;;;;;;;77.33;60.33;;;;;;;;5043765;28;8843;-80
2022/01/24 08:16:17;;;;;;;;;77.00;63.33;;;;;;;;5042678;28;8870;-79
2022/01/24 08:18:44;;;;;;;;;83.00;67.00;;;;;;;;5045297;28;8944;-80
2022/01/24 08:21:12;;;;;;;;;77.33;61.67;;;;;;;;5043987;28;8860;-77
2022/01/24 08:23:40;;;;;;;;;71.00;59.00;;;;;;;;5044573;28;8910;-78
2022/01/24 08:26:07;;;;;;;;;77.33;60.33;;;;;;;;5039163;28;8870;-79
2022/01/24 08:28:35;;;;;;;;;79.33;64.00;;;;;;;;5040411;28;8982;-81
2022/01/24 08:31:02;;;;;;;;;101.50;80.25;;;;;;;;5043929;28;9583;-78
2022/01/24 08:33:29;;;;;;;;;91.75;70.50;;;;;;;;5045111;28;8872;-77
2022/01/24 08:35:57;;;;;;;;;91.00;72.00;;;;;;;;5045391;28;8913;-75
2022/01/24 08:38:24;;;;;;;;;84.00;68.67;;;;;;;;5043659;28;8906;-78
2022/01/24 08:40:58;;;;;;;;;79.33;63.00;;;;;;;;5044506;28;8876;-79
2022/01/24 08:43:38;;;;;;;;;67.00;56.67;;;;;;;;5040809;28;8884;-79
2022/01/24 08:46:05;;;;;;;;;74.33;60.33;;;;;;;;5044381;28;8860;-78
2022/01/24 08:48:33;;;;;;;;;78.00;61.67;;;;;;;;5044333;28;8902;-80
2022/01/24 08:51:01;;;;;;;;;77.67;61.33;;;;;;;;5043033;28;8876;-78
2022/01/24 08:53:31;;;;;;;;;82.67;61.00;;;;;;;;5043746;28;9495;-81
2022/01/24 08:56:00;;;;;;;;;73.67;60.00;;;;;;;;5043372;28;8866;-81
2022/01/24 08:58:28;;;;;;;;;76.67;64.33;;;;;;;;5027118;28;8848;-82
2022/01/24 09:00:55;;;;;;;;;77.67;63.33;;;;;;;;5035393;28;8811;-80
2022/01/24 09:03:23;;;;;;;;;69.00;53.00;;;;;;;;5037882;28;9607;-79
2022/01/24 09:05:53;;;;;;;;;75.33;57.00;;;;;;;;5038176;28;8856;-81
2022/01/24 09:08:22;;;;;;;;;68.67;56.67;;;;;;;;5038022;28;8884;-83
2022/01/24 09:10:51;;;;;;;;;67.33;51.67;;;;;;;;5020942;28;8852;-81
2022/01/24 09:13:21;;;;;;;;;68.33;55.33;;;;;;;;5041429;28;8967;-83
2022/01/24 09:15:48;;;;;;;;;77.00;57.67;;;;;;;;5043909;28;8868;-86
2022/01/24 09:18:19;;;;;;;;;53.67;43.67;;;;;;;;5042297;28;8876;-83
2022/01/24 09:20:49;;;;;;;;;62.00;52.33;;;;;;;;5027699;28;8839;-83
2022/01/24 09:23:16;;;;;;;;;58.00;45.00;;;;;;;;5043036;28;8848;-87
2022/01/24 09:25:44;;;;;;;;;67.33;53.00;;;;;;;;5041950;28;8964;-77
2022/01/24 09:28:11;;;;;;;;;53.33;45.33;;;;;;;;5043271;28;8839;-84
2022/01/24 09:30:40;;;;;;;;;59.67;44.00;;;;;;;;5025508;28;8859;-76
2022/01/24 09:33:11;;;;;;;;;42.67;41.00;;;;;;;;5027265;28;8864;-86
2022/01/24 09:35:39;;;;;;;;;49.67;41.00;;;;;;;;5037794;28;12290;-82
2022/01/24 09:38:06;;;;;;;;;60.33;48.00;;;;;;;;5041636;28;11643;-84
2022/01/24 09:40:35;;;;;;;;;44.50;36.00;;;;;;;;5042379;28;11489;-84
2022/01/24 09:43:03;;;;;;;;;58.75;43.25;;;;;;;;5027521;28;11570;-78
2022/01/24 09:45:31;;;;;;;;;45.25;39.25;;;;;;;;5043970;28;11549;-80
2022/01/24 09:48:00;;;;;;;;;34.00;34.00;;;;;;;;5041905;28;11560;-84
2022/01/24 09:50:27;;;;;;;;;39.75;34.25;;;;;;;;5040209;28;12414;-80
2022/01/24 09:52:54;;;;;;;;;40.50;34.00;;;;;;;;5040121;28;11568;-80
2022/01/24 09:55:24;;;;;;;;;39.50;38.75;;;;;;;;5027186;28;11542;-81
2022/01/24 09:57:52;;;;;;;;;50.25;37.00;;;;;;;;5038176;28;11484;-81
2022/01/24 10:00:21;;;;;;;;;38.50;31.25;;;;;;;;5041430;28;11547;-82
2022/01/24 10:02:50;;;;;;;;;35.25;26.50;;;;;;;;5042327;28;11549;-85
2022/01/24 10:05:22;;;;;;;;;39.75;35.50;;;;;;;;5042420;28;11546;-79
2022/01/24 10:07:54;;;;;;;;;40.50;37.50;;;;;;;;5042651;28;11582;-85
2022/01/24 10:10:28;;;;;;;;;44.00;39.50;;;;;;;;5044735;28;11516;-78
2022/01/24 10:18:29;;;;;;;;;38.00;36.00;;;;;;;;5043279;28;11508;-86
2022/01/24 10:20:58;;;;;;;;;42.00;39.00;;;;;;;;5043629;28;11622;-85
2022/01/24 10:23:27;;;;;;;;;43.25;37.75;;;;;;;;5027676;28;11534;-87
2022/01/24 10:25:59;;;;;;;;;53.50;40.75;;;;;;;;5046595;28;11534;-87
2022/01/24 10:28:34;;;;;;;;;47.00;41.25;;;;;;;;5045776;28;11701;-87
2022/01/24 10:31:11;;;;;;;;;35.00;32.00;;;;;;;;5043826;28;11477;-81
2022/01/24 10:33:59;;;;;;;;;39.50;34.25;;;;;;;;5047880;28;11531;-83
2022/01/24 10:36:39;;;;;;;;;32.25;32.25;;;;;;;;5038608;28;11511;-83
2022/01/24 10:39:18;;;;;;;;;44.00;36.00;;;;;;;;5041948;28;11509;-81
2022/01/24 10:44:32;;;;;;;;;34.00;28.75;;;;;;;;5036012;28;11645;-83
2022/01/24 10:47:13;;;;;;;;;34.25;27.50;;;;;;;;5044624;28;11626;-84
2022/01/24 10:49:41;;;;;;;;;42.00;37.25;;;;;;;;5046800;28;11653;-83
2022/01/24 10:52:17;;;;;;;;;29.00;28.25;;;;;;;;5045988;28;11539;-83
2022/01/24 10:54:44;;;;;;;;;38.25;33.00;;;;;;;;5047845;28;11592;-83
2022/01/24 10:57:22;;;;;;;;;30.75;27.00;;;;;;;;5047029;28;11645;-85
2022/01/24 10:59:49;;;;;;;;;39.50;34.25;;;;;;;;5046408;28;11666;-83
2022/01/24 11:02:18;;;;;;;;;42.00;35.75;;;;;;;;5044549;28;11480;-84
2022/01/24 11:04:45;;;;;;;;;37.25;33.75;;;;;;;;5034627;28;11500;-83
2022/01/24 11:07:14;;;;;;;;;25.00;22.25;;;;;;;;5046504;28;11636;-84
2022/01/24 11:09:41;;;;;;;;;40.25;34.00;;;;;;;;5044433;28;11508;-84
2022/01/24 11:12:12;;;;;;;;;31.75;29.25;;;;;;;;5045692;28;11727;-86
2022/01/24 11:14:40;;;;;;;;;30.75;27.25;;;;;;;;5043110;28;11665;-85
2022/01/24 11:17:09;;;;;;;;;26.25;24.50;;;;;;;;5043767;28;11619;-82
2022/01/24 11:19:41;;;;;;;;;31.50;26.50;;;;;;;;5045042;28;11480;-83
2022/01/24 11:22:19;;;;;;;;;26.00;22.50;;;;;;;;5047084;28;11549;-85
2022/01/24 11:24:54;;;;;;;;;29.50;27.00;;;;;;;;5045531;28;11482;-85
2022/01/24 11:27:22;;;;;;;;;18.00;18.00;;;;;;;;5044417;28;11621;-85
2022/01/24 11:29:53;;;;;;;;;33.75;30.50;;;;;;;;5036879;28;11448;-86
2022/01/24 11:32:25;;;;;;;;;32.50;31.25;;;;;;;;5053414;28;11439;-81
2022/01/24 11:34:55;;;;;;;;;33.75;26.50;;;;;;;;5054631;28;11718;-85
2022/01/24 11:37:37;;;;;;;;;29.00;25.25;;;;;;;;5040316;28;12310;-79
2022/01/24 11:40:11;;;;;;;;;27.25;25.25;;;;;;;;5042927;28;11461;-80
2022/01/24 11:42:39;;;;;;;;;34.50;28.50;;;;;;;;5033069;28;12290;-78
2022/01/24 11:45:13;;;;;;;;;32.75;27.75;;;;;;;;5053484;28;11493;-82
2022/01/24 11:47:43;;;;;;;;;26.50;21.00;;;;;;;;5049862;28;11610;-87
2022/01/24 11:50:31;;;;;;;;;27.75;24.25;;;;;;;;5043995;28;11316;-83
2022/01/24 11:52:59;;;;;;;;;39.00;34.00;;;;;;;;5048375;28;11986;-83
2022/01/24 11:55:34;;;;;;;;;34.25;24.75;;;;;;;;5049308;28;11098;-81
2022/01/24 11:58:04;;;;;;;;;30.00;28.00;;;;;;;;5050598;28;10886;-77
2022/01/24 12:00:38;;;;;;;;;27.50;26.00;;;;;;;;5040556;28;10821;-73
2022/01/24 12:03:16;;;;;;;;;29.75;26.00;;;;;;;;5024512;28;10909;-80
2022/01/24 12:05:48;;;;;;;;;28.50;24.75;;;;;;;;5034363;28;10914;-80
2022/01/24 12:08:29;;;;;;;;;27.50;23.50;;;;;;;;5025658;28;10796;-77
2022/01/24 12:11:12;;;;;;;;;27.50;27.50;;;;;;;;5020835;28;10719;-77
2022/01/24 12:13:43;;;;;;;;;32.25;25.50;;;;;;;;5028099;28;10501;-80
2022/01/24 12:16:11;;;;;;;;;26.00;26.00;;;;;;;;5023458;28;10775;-78
2022/01/24 12:19:00;;;;;;;;;30.00;22.25;;;;;;;;5031552;28;10706;-80
2022/01/24 12:21:30;;;;;;;;;24.25;23.00;;;;;;;;5020259;28;10525;-80
2022/01/24 12:24:00;;;;;;;;;37.25;28.75;;;;;;;;5022579;28;10421;-79
2022/01/24 12:26:32;;;;;;;;;36.75;30.25;;;;;;;;5005287;28;10344;-75
2022/01/24 12:29:03;;;;;;;;;39.75;32.00;;;;;;;;5020102;28;10496;-82
2022/01/24 12:31:38;;;;;;;;;34.00;27.75;;;;;;;;5033361;28;10376;-74
2022/01/24 12:34:16;;;;;;;;;27.50;27.00;;;;;;;;5041663;28;10279;-83
2022/01/24 12:36:50;;;;;;;;;21.00;15.50;;;;;;;;5045513;28;10234;-82
2022/01/24 12:39:23;;;;;;;;;22.00;21.25;;;;;;;;5044385;28;10031;-82
2022/01/24 12:41:58;;;;;;;;;28.50;23.00;;;;;;;;5024184;28;10033;-79
2022/01/24 12:47:14;;;;;;;;;22.50;20.25;;;;;;;;5042592;28;10034;-82
2022/01/24 12:49:43;;;;;;;;;25.25;23.50;;;;;;;;5046366;28;10041;-79
2022/01/24 12:52:13;;;;;;;;;36.75;30.75;;;;;;;;5044389;28;10132;-81
2022/01/24 12:54:43;;;;;;;;;25.00;25.00;;;;;;;;5043884;28;10652;-78
2022/01/24 12:57:14;;;;;;;;;28.00;26.00;;;;;;;;5040795;28;10659;-79
2022/01/24 12:59:53;;;;;;;;;33.25;31.00;;;;;;;;5040743;28;9785;-80
2022/01/24 13:02:25;;;;;;;;;27.00;27.00;;;;;;;;5042817;28;9906;-80
2022/01/24 13:04:54;;;;;;;;;28.00;26.25;;;;;;;;5043758;28;10731;-80
2022/01/24 13:07:21;;;;;;;;;20.00;19.75;;;;;;;;5039171;28;10737;-80
2022/01/24 13:09:49;;;;;;;;;22.50;22.00;;;;;;;;5025737;28;9598;-78
2022/01/24 13:12:18;;;;;;;;;31.75;29.75;;;;;;;;5041278;28;9817;-79
2022/01/24 13:14:49;;;;;;;;;42.75;36.50;;;;;;;;5040955;28;10176;-79
2022/01/24 13:22:54;;;;;;;;;31.00;26.50;;;;;;;;5043898;28;9581;-82
2022/01/24 13:25:25;;;;;;;;;23.25;19.25;;;;;;;;5038489;28;9814;-79
2022/01/24 13:27:55;;;;;;;;;38.00;30.25;;;;;;;;5039955;28;9609;-81
2022/01/24 13:30:26;;;;;;;;;30.50;25.00;;;;;;;;5038640;28;10035;-82
2022/01/24 13:32:54;;;;;;;;;22.25;22.25;;;;;;;;5024180;28;9833;-81
2022/01/24 13:35:29;;;;;;;;;19.75;17.25;;;;;;;;5041035;28;9559;-82
2022/01/24 13:37:58;;;;;;;;;25.75;25.50;;;;;;;;5036876;28;9532;-78
2022/01/24 13:40:37;;;;;;;;;34.75;31.25;;;;;;;;5043371;28;9707;-82
2022/01/24 13:43:07;;;;;;;;;33.50;29.25;;;;;;;;5025652;28;9900;-82
2022/01/24 13:45:36;;;;;;;;;31.50;26.25;;;;;;;;5041640;28;9643;-82
2022/01/24 13:48:06;;;;;;;;;25.67;21.67;;;;;;;;5054026;28;9773;-82
2022/01/24 13:50:34;;;;;;;;;20.25;19.75;;;;;;;;5022510;28;9429;-82
2022/01/24 13:53:02;;;;;;;;;20.25;20.25;;;;;;;;5022985;28;9621;-82
2022/01/24 13:55:29;;;;;;;;;25.50;24.50;;;;;;;;5021071;28;9514;-77
2022/01/24 13:57:57;;;;;;;;;22.25;22.00;;;;;;;;5024848;28;9717;-76
2022/01/24 14:00:28;;;;;;;;;19.75;15.75;;;;;;;;5022760;28;9699;-82
2022/01/24 14:03:11;;;;;;;;;27.00;25.00;;;;;;;;5021217;28;9718;-81
2022/01/24 14:05:39;;;;;;;;;32.75;32.75;;;;;;;;5021071;28;9652;-81
2022/01/24 14:08:16;;;;;;;;;23.25;23.25;;;;;;;;5014617;28;9821;-82
2022/01/24 14:10:44;;;;;;;;;56.75;46.25;;;;;;;;5019969;28;9520;-80
2022/01/24 14:13:11;;;;;;;;;29.25;27.25;;;;;;;;5022016;28;10670;-82
2022/01/24 14:15:50;;;;;;;;;26.00;24.67;;;;;;;;5021597;28;9662;-82
2022/01/24 14:18:28;;;;;;;;;26.00;26.00;;;;;;;;5021462;28;9439;-81
2022/01/24 14:20:57;;;;;;;;;33.00;28.75;;;;;;;;5023632;28;9417;-82
2022/01/24 14:23:28;;;;;;;;;30.00;26.25;;;;;;;;5019481;28;9732;-81
2022/01/24 14:25:56;;;;;;;;;28.50;27.25;;;;;;;;5020547;28;9467;-81
2022/01/24 14:28:24;;;;;;;;;31.75;30.50;;;;;;;;5022376;28;9448;-83
2022/01/24 14:30:55;;;;;;;;;21.75;21.25;;;;;;;;5019877;28;9588;-83
2022/01/24 14:33:24;;;;;;;;;40.25;36.00;;;;;;;;5020559;28;9482;-82
2022/01/24 14:35:54;;;;;;;;;29.25;29.00;;;;;;;;5021205;28;10156;-82
2022/01/24 14:38:30;;;;;;;;;31.50;31.50;;;;;;;;5022023;28;9831;-82
2022/01/24 14:41:01;;;;;;;;;23.25;21.75;;;;;;;;5020787;28;9897;-82
2022/01/24 14:46:18;;;;;;;;;24.25;24.25;;;;;;;;5019846;28;9694;-80
2022/01/24 14:48:47;;;;;;;;;26.00;24.00;;;;;;;;5031627;28;9651;-82
2022/01/24 14:51:16;;;;;;;;;22.25;18.50;;;;;;;;5042287;28;9726;-82
2022/01/24 14:53:44;;;;;;;;;23.50;21.50;;;;;;;;5041850;28;10416;-80
2022/01/24 14:56:14;;;;;;;;;28.00;21.50;;;;;;;;5045854;28;10036;-82
2022/01/24 14:58:42;;;;;;;;;13.50;12.75;;;;;;;;5045613;28;9989;-82
2022/01/24 15:01:09;;;;;;;;;20.00;18.75;;;;;;;;5044507;28;9956;-82
2022/01/24 15:03:40;;;;;;;;;26.75;22.25;;;;;;;;5045650;28;10142;-78
2022/01/24 15:06:08;;;;;;;;;23.00;20.75;;;;;;;;5041451;28;10220;-82
2022/01/24 15:08:35;;;;;;;;;25.50;25.50;;;;;;;;5044519;28;10312;-81
2022/01/24 15:11:02;;;;;;;;;22.50;20.25;;;;;;;;5044418;28;10621;-82
2022/01/24 15:13:37;;;;;;;;;25.75;25.00;;;;;;;;5046176;28;10617;-81
2022/01/24 15:16:13;;;;;;;;;21.25;18.50;;;;;;;;5042213;28;10401;-80
2022/01/24 15:24:28;;;;;;;;;30.50;26.50;;;;;;;;5043978;28;10481;-81
2022/01/24 15:26:55;;;;;;;;;27.00;25.00;;;;;;;;5042706;28;10689;-82
2022/01/24 15:29:23;;;;;;;;;28.50;22.75;;;;;;;;5044798;28;10655;-79
2022/01/24 15:31:50;;;;;;;;;29.00;29.00;;;;;;;;5041152;28;10635;-80
2022/01/24 15:34:22;;;;;;;;;23.50;23.50;;;;;;;;5045231;28;10842;-84
2022/01/24 15:36:50;;;;;;;;;27.00;26.25;;;;;;;;5045571;28;10815;-81
2022/01/24 15:39:17;;;;;;;;;33.25;32.00;;;;;;;;5027680;28;11542;-80
2022/01/24 15:42:01;;;;;;;;;31.00;26.75;;;;;;;;5043874;28;10955;-81
2022/01/24 15:47:31;;;;;;;;;27.00;27.00;;;;;;;;5043159;28;10703;-81
2022/01/24 15:50:00;;;;;;;;;41.75;36.75;;;;;;;;5047410;28;10793;-79
2022/01/24 15:52:28;;;;;;;;;23.25;21.50;;;;;;;;5041971;28;11431;-79
2022/01/24 15:54:55;;;;;;;;;22.25;20.00;;;;;;;;5043776;28;11034;-83
2022/01/24 16:27:45;;;;;;;;;84.50;67.25;;;;;;;;5037194;28;11599;-83
2022/01/24 16:37:01;;;;;;;;;56.50;46.25;;;;;;;;5032048;28;11590;-84
2022/01/24 16:39:34;;;;;;;;;38.75;35.50;;;;;;;;5043573;28;11602;-86
2022/01/24 16:42:06;;;;;;;;;28.75;27.75;;;;;;;;5038273;28;11625;-85
2022/01/24 16:44:54;;;;;;;;;38.25;33.75;;;;;;;;5050533;28;11575;-78
2022/01/24 16:47:25;;;;;;;;;32.25;28.50;;;;;;;;5052057;28;11628;-78
2022/01/24 16:49:52;;;;;;;;;32.25;28.25;;;;;;;;5041332;28;11608;-81
2022/01/24 16:52:20;;;;;;;;;33.50;29.25;;;;;;;;5040604;28;11640;-86